sensor_id;sensor_type;location;lat;lon;timestamp;temperature;humidity
78212;SHT31;67490;52.086;5.122;2023-05-29T00:02:34;14.73;63.54
78212;SHT31;67490;52.086;5.122;2023-05-29T00:05:18;14.59;63.81
78212;SHT31;67490;52.086;5.122;2023-05-29T00:08:03;14.64;63.35
78212;SHT31;67490;52.086;5.122;2023-05-29T00:10:47;14.89;63.34
78212;SHT31;67490;52.086;5.122;2023-05-29T00:13:32;14.93;62.83
78212;SHT31;67490;52.086;5.122;2023-05-29T00:16:16;14.75;63.42
78212;SHT31;67490;52.086;5.122;2023-05-29T00:19:03;14.93;63.15
78212;SHT31;67490;52.086;5.122;2023-05-29T00:21:47;15.03;62.68
78212;SHT31;67490;52.086;5.122;2023-05-29T00:24:32;14.97;62.69
78212;SHT31;67490;52.086;5.122;2023-05-29T00:27:16;15.10;62.29
78212;SHT31;67490;52.086;5.122;2023-05-29T00:30:00;14.79;62.54
78212;SHT31;67490;52.086;5.122;2023-05-29T00:32:45;14.92;62.38
78212;SHT31;67490;52.086;5.122;2023-05-29T00:35:31;14.48;62.91
78212;SHT31;67490;52.086;5.122;2023-05-29T00:38:15;14.82;62.90
78212;SHT31;67490;52.086;5.122;2023-05-29T00:41:00;14.39;63.26
78212;SHT31;67490;52.086;5.122;2023-05-29T00:43:45;14.14;64.35
78212;SHT31;67490;52.086;5.122;2023-05-29T00:46:30;14.14;64.76
78212;SHT31;67490;52.086;5.122;2023-05-29T00:49:16;13.94;63.88
78212;SHT31;67490;52.086;5.122;2023-05-29T00:52:03;14.21;63.71
78212;SHT31;67490;52.086;5.122;2023-05-29T00:54:51;14.48;62.88
78212;SHT31;67490;52.086;5.122;2023-05-29T00:57:37;14.18;63.26
78212;SHT31;67490;52.086;5.122;2023-05-29T01:00:24;14.28;63.43
78212;SHT31;67490;52.086;5.122;2023-05-29T01:03:10;14.46;63.28
78212;SHT31;67490;52.086;5.122;2023-05-29T01:05:59;14.41;62.99
78212;SHT31;67490;52.086;5.122;2023-05-29T01:08:46;14.42;63.11
78212;SHT31;67490;52.086;5.122;2023-05-29T01:11:39;14.57;62.28
78212;SHT31;67490;52.086;5.122;2023-05-29T01:14:36;14.52;62.27
78212;SHT31;67490;52.086;5.122;2023-05-29T01:17:31;14.22;62.83
78212;SHT31;67490;52.086;5.122;2023-05-29T01:20:27;14.31;62.39
78212;SHT31;67490;52.086;5.122;2023-05-29T01:26:47;14.49;62.14
78212;SHT31;67490;52.086;5.122;2023-05-29T01:29:34;14.42;62.12
78212;SHT31;67490;52.086;5.122;2023-05-29T01:32:20;14.45;62.10
78212;SHT31;67490;52.086;5.122;2023-05-29T01:35:06;14.41;62.07
78212;SHT31;67490;52.086;5.122;2023-05-29T01:37:52;14.39;61.93
78212;SHT31;67490;52.086;5.122;2023-05-29T01:40:36;14.54;61.72
78212;SHT31;67490;52.086;5.122;2023-05-29T01:43:22;14.61;61.54
78212;SHT31;67490;52.086;5.122;2023-05-29T01:46:07;14.48;61.48
78212;SHT31;67490;52.086;5.122;2023-05-29T01:48:53;14.35;61.88
78212;SHT31;67490;52.086;5.122;2023-05-29T01:51:38;14.25;61.67
78212;SHT31;67490;52.086;5.122;2023-05-29T01:54:23;14.11;62.52
78212;SHT31;67490;52.086;5.122;2023-05-29T01:57:08;14.06;62.79
78212;SHT31;67490;52.086;5.122;2023-05-29T01:59:54;13.94;62.49
78212;SHT31;67490;52.086;5.122;2023-05-29T02:02:39;13.94;62.84
78212;SHT31;67490;52.086;5.122;2023-05-29T02:05:24;13.60;63.77
78212;SHT31;67490;52.086;5.122;2023-05-29T02:08:08;13.43;64.51
78212;SHT31;67490;52.086;5.122;2023-05-29T02:10:53;13.34;64.30
78212;SHT31;67490;52.086;5.122;2023-05-29T02:13:38;13.32;64.85
78212;SHT31;67490;52.086;5.122;2023-05-29T02:16:24;13.45;64.63
78212;SHT31;67490;52.086;5.122;2023-05-29T02:19:11;13.34;64.15
78212;SHT31;67490;52.086;5.122;2023-05-29T02:21:55;13.56;64.42
78212;SHT31;67490;52.086;5.122;2023-05-29T02:24:40;13.66;63.86
78212;SHT31;67490;52.086;5.122;2023-05-29T02:27:25;13.81;63.61
78212;SHT31;67490;52.086;5.122;2023-05-29T02:30:10;13.48;64.40
78212;SHT31;67490;52.086;5.122;2023-05-29T02:32:56;13.38;65.01
78212;SHT31;67490;52.086;5.122;2023-05-29T02:35:40;13.42;65.02
78212;SHT31;67490;52.086;5.122;2023-05-29T02:38:24;13.66;64.50
78212;SHT31;67490;52.086;5.122;2023-05-29T02:41:09;13.58;64.21
78212;SHT31;67490;52.086;5.122;2023-05-29T02:43:53;13.74;64.06
78212;SHT31;67490;52.086;5.122;2023-05-29T02:46:37;13.60;63.65
78212;SHT31;67490;52.086;5.122;2023-05-29T02:49:22;13.65;63.77
78212;SHT31;67490;52.086;5.122;2023-05-29T02:52:07;13.36;64.51
78212;SHT31;67490;52.086;5.122;2023-05-29T02:54:51;13.59;64.70
78212;SHT31;67490;52.086;5.122;2023-05-29T02:57:37;13.53;64.40
78212;SHT31;67490;52.086;5.122;2023-05-29T03:00:22;13.79;64.19
78212;SHT31;67490;52.086;5.122;2023-05-29T03:03:07;13.58;64.28
78212;SHT31;67490;52.086;5.122;2023-05-29T03:05:53;13.63;64.25
78212;SHT31;67490;52.086;5.122;2023-05-29T03:08:37;13.65;64.31
78212;SHT31;67490;52.086;5.122;2023-05-29T03:11:24;13.74;63.85
78212;SHT31;67490;52.086;5.122;2023-05-29T03:14:09;13.55;64.11
78212;SHT31;67490;52.086;5.122;2023-05-29T03:16:54;13.45;64.31
78212;SHT31;67490;52.086;5.122;2023-05-29T03:19:38;13.34;64.26
78212;SHT31;67490;52.086;5.122;2023-05-29T03:22:24;13.53;64.51
78212;SHT31;67490;52.086;5.122;2023-05-29T03:25:09;13.69;63.96
78212;SHT31;67490;52.086;5.122;2023-05-29T03:27:53;13.77;63.49
78212;SHT31;67490;52.086;5.122;2023-05-29T03:30:38;13.58;64.00
78212;SHT31;67490;52.086;5.122;2023-05-29T03:33:22;13.07;64.44
78212;SHT31;67490;52.086;5.122;2023-05-29T03:36:07;13.23;64.60
78212;SHT31;67490;52.086;5.122;2023-05-29T03:38:53;13.22;64.90
78212;SHT31;67490;52.086;5.122;2023-05-29T03:41:38;13.19;64.87
78212;SHT31;67490;52.086;5.122;2023-05-29T03:44:23;13.02;65.21
78212;SHT31;67490;52.086;5.122;2023-05-29T03:47:07;13.09;65.24
78212;SHT31;67490;52.086;5.122;2023-05-29T03:49:52;13.40;64.56
78212;SHT31;67490;52.086;5.122;2023-05-29T03:52:37;13.11;64.62
78212;SHT31;67490;52.086;5.122;2023-05-29T03:55:22;13.22;64.27
78212;SHT31;67490;52.086;5.122;2023-05-29T03:58:07;13.45;64.11
78212;SHT31;67490;52.086;5.122;2023-05-29T04:00:51;13.63;63.48
78212;SHT31;67490;52.086;5.122;2023-05-29T04:03:36;13.74;62.84
78212;SHT31;67490;52.086;5.122;2023-05-29T04:06:22;13.74;62.78
78212;SHT31;67490;52.086;5.122;2023-05-29T04:09:07;13.69;62.73
78212;SHT31;67490;52.086;5.122;2023-05-29T04:11:53;13.31;63.42
78212;SHT31;67490;52.086;5.122;2023-05-29T04:14:38;13.58;63.37
78212;SHT31;67490;52.086;5.122;2023-05-29T04:17:22;13.46;62.92
78212;SHT31;67490;52.086;5.122;2023-05-29T04:20:08;13.63;62.99
78212;SHT31;67490;52.086;5.122;2023-05-29T04:22:52;13.58;62.74
78212;SHT31;67490;52.086;5.122;2023-05-29T04:25:37;13.71;62.88
78212;SHT31;67490;52.086;5.122;2023-05-29T04:28:23;13.63;62.33
78212;SHT31;67490;52.086;5.122;2023-05-29T04:31:08;13.62;62.93
78212;SHT31;67490;52.086;5.122;2023-05-29T04:33:53;13.63;62.67
78212;SHT31;67490;52.086;5.122;2023-05-29T04:36:40;13.46;63.32
78212;SHT31;67490;52.086;5.122;2023-05-29T04:39:24;13.53;63.29
78212;SHT31;67490;52.086;5.122;2023-05-29T04:42:09;13.40;63.58
78212;SHT31;67490;52.086;5.122;2023-05-29T04:44:55;13.56;63.36
78212;SHT31;67490;52.086;5.122;2023-05-29T04:47:39;13.26;63.19
78212;SHT31;67490;52.086;5.122;2023-05-29T04:50:27;13.40;63.41
78212;SHT31;67490;52.086;5.122;2023-05-29T04:53:15;13.65;62.84
78212;SHT31;67490;52.086;5.122;2023-05-29T04:55:59;13.58;62.95
78212;SHT31;67490;52.086;5.122;2023-05-29T04:58:44;13.67;62.49
78212;SHT31;67490;52.086;5.122;2023-05-29T05:01:30;13.80;61.97
78212;SHT31;67490;52.086;5.122;2023-05-29T05:04:17;13.49;62.65
78212;SHT31;67490;52.086;5.122;2023-05-29T05:07:02;13.74;62.70
78212;SHT31;67490;52.086;5.122;2023-05-29T05:09:47;13.98;62.04
78212;SHT31;67490;52.086;5.122;2023-05-29T05:12:31;13.49;62.50
78212;SHT31;67490;52.086;5.122;2023-05-29T05:15:15;13.07;63.60
78212;SHT31;67490;52.086;5.122;2023-05-29T05:18:01;13.43;63.43
78212;SHT31;67490;52.086;5.122;2023-05-29T05:20:46;13.67;62.30
78212;SHT31;67490;52.086;5.122;2023-05-29T05:23:30;13.43;62.16
78212;SHT31;67490;52.086;5.122;2023-05-29T05:26:15;13.71;62.28
78212;SHT31;67490;52.086;5.122;2023-05-29T05:28:59;13.86;62.02
78212;SHT31;67490;52.086;5.122;2023-05-29T05:31:44;13.70;62.15
78212;SHT31;67490;52.086;5.122;2023-05-29T05:34:30;13.77;61.83
78212;SHT31;67490;52.086;5.122;2023-05-29T05:37:15;13.96;61.61
78212;SHT31;67490;52.086;5.122;2023-05-29T05:39:59;13.86;60.99
78212;SHT31;67490;52.086;5.122;2023-05-29T05:42:44;14.13;60.94
78212;SHT31;67490;52.086;5.122;2023-05-29T05:45:28;13.91;61.04
78212;SHT31;67490;52.086;5.122;2023-05-29T05:48:12;14.08;60.92
78212;SHT31;67490;52.086;5.122;2023-05-29T05:50:58;13.70;61.60
78212;SHT31;67490;52.086;5.122;2023-05-29T05:53:42;13.83;61.68
78212;SHT31;67490;52.086;5.122;2023-05-29T05:56:26;14.04;61.28
78212;SHT31;67490;52.086;5.122;2023-05-29T05:59:11;14.28;60.63
78212;SHT31;67490;52.086;5.122;2023-05-29T06:01:55;14.41;60.00
78212;SHT31;67490;52.086;5.122;2023-05-29T06:04:40;14.13;60.40
78212;SHT31;67490;52.086;5.122;2023-05-29T06:07:26;14.45;59.77
78212;SHT31;67490;52.086;5.122;2023-05-29T06:10:10;14.76;58.67
78212;SHT31;67490;52.086;5.122;2023-05-29T06:12:55;14.52;57.86
78212;SHT31;67490;52.086;5.122;2023-05-29T06:15:39;14.38;58.10
78212;SHT31;67490;52.086;5.122;2023-05-29T06:18:24;14.89;56.95
78212;SHT31;67490;52.086;5.122;2023-05-29T06:21:08;15.20;55.78
78212;SHT31;67490;52.086;5.122;2023-05-29T06:23:54;15.30;55.48
78212;SHT31;67490;52.086;5.122;2023-05-29T06:26:39;15.99;53.80
78212;SHT31;67490;52.086;5.122;2023-05-29T06:29:24;16.17;52.70
78212;SHT31;67490;52.086;5.122;2023-05-29T06:32:08;16.75;51.96
78212;SHT31;67490;52.086;5.122;2023-05-29T06:34:53;16.54;51.00
78212;SHT31;67490;52.086;5.122;2023-05-29T06:37:37;17.28;50.29
78212;SHT31;67490;52.086;5.122;2023-05-29T06:40:22;17.47;49.11
78212;SHT31;67490;52.086;5.122;2023-05-29T06:43:06;17.93;48.45
78212;SHT31;67490;52.086;5.122;2023-05-29T06:45:51;18.07;47.79
78212;SHT31;67490;52.086;5.122;2023-05-29T06:48:36;17.21;48.47
78212;SHT31;67490;52.086;5.122;2023-05-29T06:51:20;17.45;48.82
78212;SHT31;67490;52.086;5.122;2023-05-29T06:54:04;17.73;48.23
78212;SHT31;67490;52.086;5.122;2023-05-29T06:56:50;17.86;47.93
78212;SHT31;67490;52.086;5.122;2023-05-29T06:59:34;17.94;47.28
78212;SHT31;67490;52.086;5.122;2023-05-29T07:02:19;18.62;46.62
78212;SHT31;67490;52.086;5.122;2023-05-29T07:05:04;18.59;45.78
78212;SHT31;67490;52.086;5.122;2023-05-29T07:07:48;18.96;45.59
78212;SHT31;67490;52.086;5.122;2023-05-29T07:10:33;18.08;45.66
78212;SHT31;67490;52.086;5.122;2023-05-29T07:13:18;18.72;45.66
78212;SHT31;67490;52.086;5.122;2023-05-29T07:16:03;18.37;45.69
78212;SHT31;67490;52.086;5.122;2023-05-29T07:18:47;17.66;47.22
78212;SHT31;67490;52.086;5.122;2023-05-29T07:21:32;18.18;46.99
78212;SHT31;67490;52.086;5.122;2023-05-29T07:24:16;17.93;47.14
78212;SHT31;67490;52.086;5.122;2023-05-29T07:27:01;18.42;46.05
78212;SHT31;67490;52.086;5.122;2023-05-29T07:29:47;18.73;45.26
78212;SHT31;67490;52.086;5.122;2023-05-29T07:32:31;17.80;47.31
78212;SHT31;67490;52.086;5.122;2023-05-29T07:35:15;18.51;46.54
78212;SHT31;67490;52.086;5.122;2023-05-29T07:37:59;18.83;45.29
78212;SHT31;67490;52.086;5.122;2023-05-29T07:40:44;19.75;44.51
78212;SHT31;67490;52.086;5.122;2023-05-29T07:43:28;19.26;44.52
78212;SHT31;67490;52.086;5.122;2023-05-29T07:46:14;19.81;43.80
78212;SHT31;67490;52.086;5.122;2023-05-29T07:48:59;19.75;43.61
78212;SHT31;67490;52.086;5.122;2023-05-29T07:51:44;18.52;45.04
78212;SHT31;67490;52.086;5.122;2023-05-29T07:54:28;19.02;45.15
78212;SHT31;67490;52.086;5.122;2023-05-29T07:57:13;19.55;44.59
78212;SHT31;67490;52.086;5.122;2023-05-29T07:59:57;19.82;43.71
78212;SHT31;67490;52.086;5.122;2023-05-29T08:02:43;20.12;42.88
78212;SHT31;67490;52.086;5.122;2023-05-29T08:05:29;18.59;44.94
78212;SHT31;67490;52.086;5.122;2023-05-29T08:08:16;18.35;46.44
78212;SHT31;67490;52.086;5.122;2023-05-29T08:11:00;19.21;45.16
78212;SHT31;67490;52.086;5.122;2023-05-29T08:13:44;19.40;44.09
78212;SHT31;67490;52.086;5.122;2023-05-29T08:16:29;19.72;43.53
78212;SHT31;67490;52.086;5.122;2023-05-29T08:19:15;19.91;43.35
78212;SHT31;67490;52.086;5.122;2023-05-29T08:21:59;19.57;42.78
78212;SHT31;67490;52.086;5.122;2023-05-29T08:24:44;20.36;43.02
78212;SHT31;67490;52.086;5.122;2023-05-29T08:27:29;20.95;42.11
78212;SHT31;67490;52.086;5.122;2023-05-29T08:30:13;20.15;40.92
78212;SHT31;67490;52.086;5.122;2023-05-29T08:32:58;18.93;43.48
78212;SHT31;67490;52.086;5.122;2023-05-29T08:35:44;18.92;43.31
78212;SHT31;67490;52.086;5.122;2023-05-29T08:38:28;18.89;44.51
78212;SHT31;67490;52.086;5.122;2023-05-29T08:41:21;19.64;42.86
78212;SHT31;67490;52.086;5.122;2023-05-29T08:44:13;19.62;41.59
78212;SHT31;67490;52.086;5.122;2023-05-29T08:47:01;20.22;41.28
78212;SHT31;67490;52.086;5.122;2023-05-29T08:49:52;20.09;40.55
78212;SHT31;67490;52.086;5.122;2023-05-29T08:52:39;19.14;42.87
78212;SHT31;67490;52.086;5.122;2023-05-29T08:55:25;19.71;42.57
78212;SHT31;67490;52.086;5.122;2023-05-29T08:58:11;20.20;40.46
78212;SHT31;67490;52.086;5.122;2023-05-29T09:00:56;20.57;39.62
78212;SHT31;67490;52.086;5.122;2023-05-29T09:03:41;20.73;40.39
78212;SHT31;67490;52.086;5.122;2023-05-29T09:06:25;20.80;40.79
78212;SHT31;67490;52.086;5.122;2023-05-29T09:09:11;21.45;40.14
78212;SHT31;67490;52.086;5.122;2023-05-29T09:11:56;20.64;39.64
78212;SHT31;67490;52.086;5.122;2023-05-29T09:14:41;20.67;39.75
78212;SHT31;67490;52.086;5.122;2023-05-29T09:17:30;20.99;39.36
78212;SHT31;67490;52.086;5.122;2023-05-29T09:20:16;19.95;40.47
78212;SHT31;67490;52.086;5.122;2023-05-29T09:23:08;19.96;42.34
78212;SHT31;67490;52.086;5.122;2023-05-29T09:25:54;20.49;40.95
78212;SHT31;67490;52.086;5.122;2023-05-29T09:28:38;19.96;40.82
78212;SHT31;67490;52.086;5.122;2023-05-29T09:31:23;20.87;40.52
78212;SHT31;67490;52.086;5.122;2023-05-29T09:34:08;21.17;39.07
78212;SHT31;67490;52.086;5.122;2023-05-29T09:36:53;21.46;40.08
78212;SHT31;67490;52.086;5.122;2023-05-29T09:39:47;21.35;39.88
78212;SHT31;67490;52.086;5.122;2023-05-29T09:42:33;21.63;40.10
78212;SHT31;67490;52.086;5.122;2023-05-29T09:45:17;21.82;39.60
78212;SHT31;67490;52.086;5.122;2023-05-29T09:48:02;21.90;39.44
78212;SHT31;67490;52.086;5.122;2023-05-29T09:50:46;21.60;38.06
78212;SHT31;67490;52.086;5.122;2023-05-29T09:53:33;19.75;41.06
78212;SHT31;67490;52.086;5.122;2023-05-29T09:56:17;20.16;40.70
78212;SHT31;67490;52.086;5.122;2023-05-29T09:59:04;20.90;40.41
78212;SHT31;67490;52.086;5.122;2023-05-29T10:02:00;21.28;39.86
78212;SHT31;67490;52.086;5.122;2023-05-29T10:04:45;21.45;37.94
78212;SHT31;67490;52.086;5.122;2023-05-29T10:07:32;21.11;39.08
78212;SHT31;67490;52.086;5.122;2023-05-29T10:10:19;21.73;38.85
78212;SHT31;67490;52.086;5.122;2023-05-29T10:13:06;21.09;37.15
78212;SHT31;67490;52.086;5.122;2023-05-29T10:15:56;21.07;39.57
78212;SHT31;67490;52.086;5.122;2023-05-29T10:18:44;20.67;38.52
78212;SHT31;67490;52.086;5.122;2023-05-29T10:21:29;21.35;39.38
78212;SHT31;67490;52.086;5.122;2023-05-29T10:24:17;21.85;39.12
78212;SHT31;67490;52.086;5.122;2023-05-29T10:27:04;21.18;38.84
78212;SHT31;67490;52.086;5.122;2023-05-29T10:29:52;20.92;40.35
78212;SHT31;67490;52.086;5.122;2023-05-29T10:33:00;21.50;39.79
78212;SHT31;67490;52.086;5.122;2023-05-29T10:35:55;21.87;38.23
78212;SHT31;67490;52.086;5.122;2023-05-29T10:38:45;22.27;38.12
78212;SHT31;67490;52.086;5.122;2023-05-29T10:41:31;21.39;39.48
78212;SHT31;67490;52.086;5.122;2023-05-29T10:44:47;21.14;38.50
78212;SHT31;67490;52.086;5.122;2023-05-29T10:47:31;21.19;40.41
78212;SHT31;67490;52.086;5.122;2023-05-29T10:50:35;20.43;39.13
78212;SHT31;67490;52.086;5.122;2023-05-29T10:53:24;20.15;40.43
78212;SHT31;67490;52.086;5.122;2023-05-29T10:56:15;20.84;39.64
78212;SHT31;67490;52.086;5.122;2023-05-29T10:59:00;21.60;39.67
78212;SHT31;67490;52.086;5.122;2023-05-29T11:01:46;21.69;38.62
78212;SHT31;67490;52.086;5.122;2023-05-29T11:04:30;21.19;38.02
78212;SHT31;67490;52.086;5.122;2023-05-29T11:07:35;21.31;39.39
78212;SHT31;67490;52.086;5.122;2023-05-29T11:10:42;21.46;38.83
78212;SHT31;67490;52.086;5.122;2023-05-29T11:13:32;21.02;37.88
78212;SHT31;67490;52.086;5.122;2023-05-29T11:16:36;21.46;38.24
78212;SHT31;67490;52.086;5.122;2023-05-29T11:19:21;21.25;38.08
78212;SHT31;67490;52.086;5.122;2023-05-29T11:22:15;20.91;39.21
78212;SHT31;67490;52.086;5.122;2023-05-29T11:25:07;21.05;38.59
78212;SHT31;67490;52.086;5.122;2023-05-29T11:27:51;21.34;39.52
78212;SHT31;67490;52.086;5.122;2023-05-29T11:30:43;21.38;38.01
78212;SHT31;67490;52.086;5.122;2023-05-29T11:33:30;20.77;38.06
78212;SHT31;67490;52.086;5.122;2023-05-29T11:36:18;21.25;39.84
78212;SHT31;67490;52.086;5.122;2023-05-29T11:39:05;21.08;38.27
78212;SHT31;67490;52.086;5.122;2023-05-29T11:41:51;21.12;38.65
78212;SHT31;67490;52.086;5.122;2023-05-29T11:44:37;20.60;40.49
78212;SHT31;67490;52.086;5.122;2023-05-29T11:47:21;21.01;40.70
78212;SHT31;67490;52.086;5.122;2023-05-29T11:50:18;20.95;38.97
78212;SHT31;67490;52.086;5.122;2023-05-29T11:53:05;20.99;40.33
78212;SHT31;67490;52.086;5.122;2023-05-29T11:55:50;21.35;40.30
78212;SHT31;67490;52.086;5.122;2023-05-29T11:58:37;21.66;37.90
78212;SHT31;67490;52.086;5.122;2023-05-29T12:01:23;21.09;39.43
78212;SHT31;67490;52.086;5.122;2023-05-29T12:04:16;20.92;40.85
78212;SHT31;67490;52.086;5.122;2023-05-29T12:07:00;20.16;42.37
78212;SHT31;67490;52.086;5.122;2023-05-29T12:09:45;19.68;41.72
78212;SHT31;67490;52.086;5.122;2023-05-29T12:12:29;19.72;41.79
78212;SHT31;67490;52.086;5.122;2023-05-29T12:15:16;20.47;41.47
78212;SHT31;67490;52.086;5.122;2023-05-29T12:18:03;20.84;41.45
78212;SHT31;67490;52.086;5.122;2023-05-29T12:20:47;20.68;39.67
78212;SHT31;67490;52.086;5.122;2023-05-29T12:23:32;20.73;39.90
78212;SHT31;67490;52.086;5.122;2023-05-29T12:26:16;20.23;41.50
78212;SHT31;67490;52.086;5.122;2023-05-29T12:29:02;20.68;41.40
78212;SHT31;67490;52.086;5.122;2023-05-29T12:31:57;20.33;40.95
78212;SHT31;67490;52.086;5.122;2023-05-29T12:34:41;20.29;40.40
78212;SHT31;67490;52.086;5.122;2023-05-29T12:37:26;20.63;41.45
78212;SHT31;67490;52.086;5.122;2023-05-29T12:40:15;20.37;42.04
78212;SHT31;67490;52.086;5.122;2023-05-29T12:43:02;19.85;41.98
78212;SHT31;67490;52.086;5.122;2023-05-29T12:45:54;19.70;42.63
78212;SHT31;67490;52.086;5.122;2023-05-29T12:48:43;20.20;42.93
78212;SHT31;67490;52.086;5.122;2023-05-29T12:51:28;20.51;43.28
78212;SHT31;67490;52.086;5.122;2023-05-29T12:54:14;19.51;44.14
78212;SHT31;67490;52.086;5.122;2023-05-29T12:56:59;19.44;44.56
78212;SHT31;67490;52.086;5.122;2023-05-29T12:59:45;19.91;45.34
78212;SHT31;67490;52.086;5.122;2023-05-29T13:02:29;19.82;42.12
78212;SHT31;67490;52.086;5.122;2023-05-29T13:05:16;20.43;43.01
78212;SHT31;67490;52.086;5.122;2023-05-29T13:08:03;20.63;41.62
78212;SHT31;67490;52.086;5.122;2023-05-29T13:10:51;20.77;41.92
78212;SHT31;67490;52.086;5.122;2023-05-29T13:13:35;19.93;43.60
78212;SHT31;67490;52.086;5.122;2023-05-29T13:16:20;20.18;44.44
78212;SHT31;67490;52.086;5.122;2023-05-29T13:19:04;20.37;43.51
78212;SHT31;67490;52.086;5.122;2023-05-29T13:21:51;19.92;44.01
78212;SHT31;67490;52.086;5.122;2023-05-29T13:24:36;19.64;44.76
78212;SHT31;67490;52.086;5.122;2023-05-29T13:27:20;19.75;44.86
78212;SHT31;67490;52.086;5.122;2023-05-29T13:30:06;20.12;43.81
78212;SHT31;67490;52.086;5.122;2023-05-29T13:32:51;19.74;44.39
78212;SHT31;67490;52.086;5.122;2023-05-29T13:35:36;19.96;44.33
78212;SHT31;67490;52.086;5.122;2023-05-29T13:38:22;20.32;42.83
78212;SHT31;67490;52.086;5.122;2023-05-29T13:41:07;20.68;41.50
78212;SHT31;67490;52.086;5.122;2023-05-29T13:43:50;20.87;42.14
78212;SHT31;67490;52.086;5.122;2023-05-29T13:46:35;20.83;43.69
78212;SHT31;67490;52.086;5.122;2023-05-29T13:49:20;20.06;42.93
78212;SHT31;67490;52.086;5.122;2023-05-29T13:52:05;19.95;44.62
78212;SHT31;67490;52.086;5.122;2023-05-29T13:54:51;20.43;42.95
78212;SHT31;67490;52.086;5.122;2023-05-29T13:57:35;20.46;43.26
78212;SHT31;67490;52.086;5.122;2023-05-29T14:00:21;20.44;43.85
78212;SHT31;67490;52.086;5.122;2023-05-29T14:03:05;20.23;43.37
78212;SHT31;67490;52.086;5.122;2023-05-29T14:05:50;20.29;42.95
78212;SHT31;67490;52.086;5.122;2023-05-29T14:08:34;20.06;43.25
78212;SHT31;67490;52.086;5.122;2023-05-29T14:11:19;19.98;43.49
78212;SHT31;67490;52.086;5.122;2023-05-29T14:14:04;19.98;43.82
78212;SHT31;67490;52.086;5.122;2023-05-29T14:16:50;19.70;44.25
78212;SHT31;67490;52.086;5.122;2023-05-29T14:19:36;19.53;44.44
78212;SHT31;67490;52.086;5.122;2023-05-29T14:22:20;19.75;43.94
78212;SHT31;67490;52.086;5.122;2023-05-29T14:25:05;19.96;42.26
78212;SHT31;67490;52.086;5.122;2023-05-29T14:27:51;19.95;43.15
78212;SHT31;67490;52.086;5.122;2023-05-29T14:30:36;20.04;42.71
78212;SHT31;67490;52.086;5.122;2023-05-29T14:33:20;20.32;42.84
78212;SHT31;67490;52.086;5.122;2023-05-29T14:36:05;20.43;42.93
78212;SHT31;67490;52.086;5.122;2023-05-29T14:38:49;20.57;42.25
78212;SHT31;67490;52.086;5.122;2023-05-29T14:41:34;20.25;43.04
78212;SHT31;67490;52.086;5.122;2023-05-29T14:44:20;20.33;43.43
78212;SHT31;67490;52.086;5.122;2023-05-29T14:47:05;20.29;42.96
78212;SHT31;67490;52.086;5.122;2023-05-29T14:49:49;20.49;43.19
78212;SHT31;67490;52.086;5.122;2023-05-29T14:52:34;19.93;43.45
78212;SHT31;67490;52.086;5.122;2023-05-29T14:55:18;20.26;43.87
78212;SHT31;67490;52.086;5.122;2023-05-29T14:58:03;20.22;43.41
78212;SHT31;67490;52.086;5.122;2023-05-29T15:00:49;19.92;44.12
78212;SHT31;67490;52.086;5.122;2023-05-29T15:03:33;19.77;44.67
78212;SHT31;67490;52.086;5.122;2023-05-29T15:06:19;20.06;44.55
78212;SHT31;67490;52.086;5.122;2023-05-29T15:09:04;20.29;43.64
78212;SHT31;67490;52.086;5.122;2023-05-29T15:11:48;20.15;44.52
78212;SHT31;67490;52.086;5.122;2023-05-29T15:14:33;20.15;43.87
78212;SHT31;67490;52.086;5.122;2023-05-29T15:17:19;19.70;44.61
78212;SHT31;67490;52.086;5.122;2023-05-29T15:20:04;19.50;45.01
78212;SHT31;67490;52.086;5.122;2023-05-29T15:22:49;19.62;46.06
78212;SHT31;67490;52.086;5.122;2023-05-29T15:25:34;19.46;46.20
78212;SHT31;67490;52.086;5.122;2023-05-29T15:28:19;19.74;45.20
78212;SHT31;67490;52.086;5.122;2023-05-29T15:31:04;20.02;45.04
78212;SHT31;67490;52.086;5.122;2023-05-29T15:33:50;19.65;44.67
78212;SHT31;67490;52.086;5.122;2023-05-29T15:36:34;19.43;45.79
78212;SHT31;67490;52.086;5.122;2023-05-29T15:39:20;19.09;45.94
78212;SHT31;67490;52.086;5.122;2023-05-29T15:42:05;18.71;46.92
78212;SHT31;67490;52.086;5.122;2023-05-29T15:44:54;18.66;46.85
78212;SHT31;67490;52.086;5.122;2023-05-29T15:47:38;18.89;46.65
78212;SHT31;67490;52.086;5.122;2023-05-29T15:50:25;18.96;46.43
78212;SHT31;67490;52.086;5.122;2023-05-29T15:53:09;19.19;47.17
78212;SHT31;67490;52.086;5.122;2023-05-29T15:55:53;19.53;44.61
78212;SHT31;67490;52.086;5.122;2023-05-29T15:58:37;19.72;44.96
78212;SHT31;67490;52.086;5.122;2023-05-29T16:01:22;19.28;45.39
78212;SHT31;67490;52.086;5.122;2023-05-29T16:04:07;19.51;45.50
78212;SHT31;67490;52.086;5.122;2023-05-29T16:06:53;18.71;45.69
78212;SHT31;67490;52.086;5.122;2023-05-29T16:09:37;19.24;46.24
78212;SHT31;67490;52.086;5.122;2023-05-29T16:12:22;19.17;45.46
78212;SHT31;67490;52.086;5.122;2023-05-29T16:15:07;18.86;45.79
78212;SHT31;67490;52.086;5.122;2023-05-29T16:17:51;19.16;46.13
78212;SHT31;67490;52.086;5.122;2023-05-29T16:20:36;19.41;46.00
78212;SHT31;67490;52.086;5.122;2023-05-29T16:23:21;19.41;45.70
78212;SHT31;67490;52.086;5.122;2023-05-29T16:26:05;19.50;46.00
78212;SHT31;67490;52.086;5.122;2023-05-29T16:28:49;19.62;45.70
78212;SHT31;67490;52.086;5.122;2023-05-29T16:31:33;19.81;45.53
78212;SHT31;67490;52.086;5.122;2023-05-29T16:34:18;19.34;46.45
78212;SHT31;67490;52.086;5.122;2023-05-29T16:37:02;19.20;46.09
78212;SHT31;67490;52.086;5.122;2023-05-29T16:39:48;19.33;46.14
78212;SHT31;67490;52.086;5.122;2023-05-29T16:42:33;18.88;46.56
78212;SHT31;67490;52.086;5.122;2023-05-29T16:45:17;18.89;46.29
78212;SHT31;67490;52.086;5.122;2023-05-29T16:48:02;18.89;46.04
78212;SHT31;67490;52.086;5.122;2023-05-29T16:50:46;18.81;47.20
78212;SHT31;67490;52.086;5.122;2023-05-29T16:53:31;19.21;46.07
78212;SHT31;67490;52.086;5.122;2023-05-29T16:56:17;19.49;47.42
78212;SHT31;67490;52.086;5.122;2023-05-29T16:59:01;19.23;46.86
78212;SHT31;67490;52.086;5.122;2023-05-29T17:01:46;19.06;46.51
78212;SHT31;67490;52.086;5.122;2023-05-29T17:04:31;18.75;47.47
78212;SHT31;67490;52.086;5.122;2023-05-29T17:07:17;18.69;47.40
78212;SHT31;67490;52.086;5.122;2023-05-29T17:10:02;18.79;46.83
78212;SHT31;67490;52.086;5.122;2023-05-29T17:12:48;18.35;47.29
78212;SHT31;67490;52.086;5.122;2023-05-29T17:15:33;18.21;47.59
78212;SHT31;67490;52.086;5.122;2023-05-29T17:18:17;18.07;48.06
78212;SHT31;67490;52.086;5.122;2023-05-29T17:21:01;18.15;48.28
78212;SHT31;67490;52.086;5.122;2023-05-29T17:23:46;18.76;47.13
78212;SHT31;67490;52.086;5.122;2023-05-29T17:26:31;18.79;46.33
78212;SHT31;67490;52.086;5.122;2023-05-29T17:29:16;18.08;47.50
78212;SHT31;67490;52.086;5.122;2023-05-29T17:32:01;18.15;47.00